Time;durP1;ratioP1;P1;durP2;ratioP2;P2;SDS_P1;SDS_P2;PMS_P1;PMS_P2;Temp;Humidity;BMP_temperature;BMP_pressure;BME280_temperature;BME280_humidity;BME280_pressure;Samples;Min_cycle;Max_cycle;Signal;HPM_P1;HPM_P2
2022/06/11 00:02:20;;;;;;;5.63;2.45;;;;;;;;;;4936475;28;20023;-76
2022/06/11 00:04:46;;;;;;;6.13;3.00;;;;;;;;;;4953842;28;20047;-77
2022/06/11 00:07:15;;;;;;;6.95;2.65;;;;;;;;;;4953259;28;20125;-77
2022/06/11 00:09:42;;;;;;;10.15;2.45;;;;;;;;;;4952299;29;20031;-77
2022/06/11 00:12:09;;;;;;;7.75;2.70;;;;;;;;;;4954739;28;20430;-75
2022/06/11 00:14:35;;;;;;;6.18;2.50;;;;;;;;;;4954347;29;20028;-78
2022/06/11 00:17:04;;;;;;;4.38;2.58;;;;;;;;;;4955098;28;20050;-74
2022/06/11 00:19:30;;;;;;;6.78;2.83;;;;;;;;;;4954876;28;20040;-74
2022/06/11 00:21:57;;;;;;;6.63;2.72;;;;;;;;;;4953537;28;20035;-77
2022/06/11 00:24:24;;;;;;;6.18;2.55;;;;;;;;;;4953510;28;20633;-77
2022/06/11 00:26:52;;;;;;;6.78;2.72;;;;;;;;;;4951842;28;20114;-78
2022/06/11 00:29:19;;;;;;;4.38;2.60;;;;;;;;;;4939474;29;20030;-76
2022/06/11 00:31:45;;;;;;;3.30;2.20;;;;;;;;;;4954037;28;20134;-76
2022/06/11 00:34:11;;;;;;;5.93;2.47;;;;;;;;;;4954191;28;20055;-76
2022/06/11 00:36:37;;;;;;;6.13;2.58;;;;;;;;;;4936359;29;20513;-77
2022/06/11 00:39:05;;;;;;;5.45;2.28;;;;;;;;;;4955273;28;20095;-77
2022/06/11 00:41:31;;;;;;;4.97;2.08;;;;;;;;;;4953123;28;20548;-78
2022/06/11 00:43:58;;;;;;;5.20;2.28;;;;;;;;;;4952638;28;20035;-78
2022/06/11 00:46:49;;;;;;;4.97;2.40;;;;;;;;;;4951960;28;20078;-77
2022/06/11 00:49:33;;;;;;;4.85;2.45;;;;;;;;;;4951416;28;20118;-75
2022/06/11 00:52:14;;;;;;;4.07;2.13;;;;;;;;;;4950975;28;20039;-75
2022/06/11 00:54:42;;;;;;;4.95;2.22;;;;;;;;;;4953121;28;20071;-78
2022/06/11 00:57:10;;;;;;;7.88;2.30;;;;;;;;;;4954802;28;20042;-76
2022/06/11 00:59:41;;;;;;;6.90;1.88;;;;;;;;;;4951906;28;20031;-76
2022/06/11 01:02:07;;;;;;;7.47;1.90;;;;;;;;;;4933769;29;20439;-76
2022/06/11 01:04:48;;;;;;;7.53;2.10;;;;;;;;;;4951628;28;20050;-77
2022/06/11 01:07:25;;;;;;;8.80;2.42;;;;;;;;;;4930697;29;20039;-75
2022/06/11 01:10:15;;;;;;;6.00;2.28;;;;;;;;;;4952986;28;20074;-77
2022/06/11 01:12:49;;;;;;;4.68;2.30;;;;;;;;;;4954417;29;20458;-77
2022/06/11 01:15:20;;;;;;;4.53;1.88;;;;;;;;;;4953218;29;20122;-76
2022/06/11 01:18:10;;;;;;;6.35;2.20;;;;;;;;;;4951301;28;20031;-77
2022/06/11 01:20:49;;;;;;;3.67;1.95;;;;;;;;;;4953232;28;20036;-76
2022/06/11 01:23:29;;;;;;;5.95;2.47;;;;;;;;;;4955238;28;20114;-77
2022/06/11 01:26:01;;;;;;;5.88;2.08;;;;;;;;;;4955400;28;20043;-77
2022/06/11 01:28:45;;;;;;;3.05;2.03;;;;;;;;;;4953907;28;20503;-78
2022/06/11 01:31:23;;;;;;;4.30;2.13;;;;;;;;;;4953335;28;20462;-76
2022/06/11 01:33:55;;;;;;;5.43;2.33;;;;;;;;;;4952463;28;20035;-78
2022/06/11 01:36:32;;;;;;;5.72;2.17;;;;;;;;;;4953624;28;20054;-78
2022/06/11 01:39:16;;;;;;;4.53;1.83;;;;;;;;;;4934669;29;20484;-77
2022/06/11 01:41:50;;;;;;;4.22;2.10;;;;;;;;;;4951987;28;20034;-77
2022/06/11 01:44:25;;;;;;;8.07;2.08;;;;;;;;;;4948768;28;20062;-77
2022/06/11 01:46:53;;;;;;;4.38;2.05;;;;;;;;;;4951906;29;20035;-76
2022/06/11 01:49:21;;;;;;;3.72;2.30;;;;;;;;;;4951765;28;20039;-76
2022/06/11 01:52:24;;;;;;;7.05;2.15;;;;;;;;;;4951330;28;20070;-77
2022/06/11 01:54:56;;;;;;;5.60;2.78;;;;;;;;;;4937235;29;20031;-76
2022/06/11 01:58:09;;;;;;;7.38;2.90;;;;;;;;;;4950425;28;20039;-74
2022/06/11 02:00:57;;;;;;;5.65;2.60;;;;;;;;;;4872795;29;20045;-74
2022/06/11 02:03:51;;;;;;;7.03;3.05;;;;;;;;;;4943585;28;20032;-74
2022/06/11 02:06:46;;;;;;;5.32;2.60;;;;;;;;;;4951303;28;20166;-75
2022/06/11 02:09:33;;;;;;;6.63;2.95;;;;;;;;;;4948124;28;20046;-74
2022/06/11 02:12:28;;;;;;;6.38;2.72;;;;;;;;;;4945652;28;20040;-75
2022/06/11 02:15:04;;;;;;;5.25;2.75;;;;;;;;;;4949669;28;20052;-74
2022/06/11 02:17:40;;;;;;;6.05;2.83;;;;;;;;;;4948376;28;20462;-74
2022/06/11 02:20:13;;;;;;;4.43;2.75;;;;;;;;;;4949670;29;20071;-76
2022/06/11 02:22:50;;;;;;;4.95;2.60;;;;;;;;;;4949907;28;20069;-75
2022/06/11 02:25:20;;;;;;;6.70;2.67;;;;;;;;;;4948756;28;20035;-74
2022/06/11 02:27:49;;;;;;;5.97;2.53;;;;;;;;;;4947719;28;20063;-76
2022/06/11 02:30:19;;;;;;;6.95;2.75;;;;;;;;;;4953307;28;20043;-74
2022/06/11 02:32:45;;;;;;;7.32;2.75;;;;;;;;;;4951695;28;20379;-74
2022/06/11 02:35:14;;;;;;;5.78;3.08;;;;;;;;;;4950724;28;20023;-74
2022/06/11 02:37:45;;;;;;;5.60;3.08;;;;;;;;;;4948941;28;20043;-73
2022/06/11 02:40:34;;;;;;;7.45;3.05;;;;;;;;;;4951091;28;20042;-75
2022/06/11 02:42:59;;;;;;;7.07;3.10;;;;;;;;;;4949080;28;20522;-73
2022/06/11 02:45:25;;;;;;;7.32;2.97;;;;;;;;;;4955120;28;20043;-75
2022/06/11 02:47:52;;;;;;;6.82;3.05;;;;;;;;;;4955869;28;20035;-72
2022/06/11 02:50:30;;;;;;;7.03;2.58;;;;;;;;;;4955011;28;20031;-72
2022/06/11 02:52:56;;;;;;;6.57;2.10;;;;;;;;;;4952990;28;20060;-72
2022/06/11 02:55:23;;;;;;;4.43;2.42;;;;;;;;;;4953355;28;20435;-74
2022/06/11 02:57:49;;;;;;;4.55;2.40;;;;;;;;;;4953801;28;20566;-73
2022/06/11 03:00:19;;;;;;;8.18;2.80;;;;;;;;;;4953598;28;20066;-69
2022/06/11 03:02:47;;;;;;;6.38;2.30;;;;;;;;;;4954071;28;20061;-71
2022/06/11 03:05:13;;;;;;;7.82;2.38;;;;;;;;;;4953254;28;20379;-71
2022/06/11 03:07:39;;;;;;;6.40;2.38;;;;;;;;;;4953628;28;20100;-71
2022/06/11 03:10:05;;;;;;;4.53;2.00;;;;;;;;;;4953630;29;20031;-71
2022/06/11 03:12:31;;;;;;;4.45;2.30;;;;;;;;;;4953098;29;20086;-72
2022/06/11 03:14:56;;;;;;;7.35;2.22;;;;;;;;;;4954049;28;20039;-70
2022/06/11 03:17:22;;;;;;;5.10;2.20;;;;;;;;;;4953551;28;20023;-70
2022/06/11 03:19:49;;;;;;;4.00;2.00;;;;;;;;;;4952425;28;21201;-72
2022/06/11 03:22:17;;;;;;;4.97;2.45;;;;;;;;;;4953263;28;20035;-74
2022/06/11 03:24:42;;;;;;;4.55;2.20;;;;;;;;;;4952814;29;20365;-71
2022/06/11 03:27:08;;;;;;;2.88;2.08;;;;;;;;;;4954120;28;20112;-74
2022/06/11 03:29:34;;;;;;;4.60;2.15;;;;;;;;;;4954597;28;20039;-74
2022/06/11 03:32:00;;;;;;;5.70;2.45;;;;;;;;;;4956814;28;20114;-71
2022/06/11 03:34:25;;;;;;;5.05;2.47;;;;;;;;;;4952636;28;20538;-71
2022/06/11 03:36:52;;;;;;;4.07;2.10;;;;;;;;;;4953269;28;20028;-72
2022/06/11 03:39:18;;;;;;;5.75;2.13;;;;;;;;;;4952778;28;20034;-71
2022/06/11 03:41:44;;;;;;;4.57;1.90;;;;;;;;;;4953506;28;20062;-71
2022/06/11 03:44:10;;;;;;;4.00;2.17;;;;;;;;;;4955139;28;20041;-69
2022/06/11 03:46:35;;;;;;;3.72;2.03;;;;;;;;;;4952474;28;20138;-70
2022/06/11 03:49:02;;;;;;;7.13;2.40;;;;;;;;;;4953536;28;20338;-71
2022/06/11 03:51:27;;;;;;;4.75;2.28;;;;;;;;;;4952414;28;20042;-71
2022/06/11 03:53:53;;;;;;;5.38;2.60;;;;;;;;;;4953711;28;20533;-70
2022/06/11 03:56:18;;;;;;;6.72;2.35;;;;;;;;;;4952602;28;20144;-71
2022/06/11 03:58:46;;;;;;;6.50;2.78;;;;;;;;;;4936799;28;20039;-73
2022/06/11 04:01:16;;;;;;;6.82;2.40;;;;;;;;;;4956121;28;20487;-70
2022/06/11 04:03:44;;;;;;;4.88;2.17;;;;;;;;;;4952436;28;20159;-70
2022/06/11 04:06:10;;;;;;;5.97;2.50;;;;;;;;;;4951178;28;20070;-72
2022/06/11 04:08:36;;;;;;;8.88;2.35;;;;;;;;;;4953251;28;20054;-72
2022/06/11 04:11:02;;;;;;;4.43;2.30;;;;;;;;;;4954289;28;20019;-70
2022/06/11 04:13:29;;;;;;;8.68;2.50;;;;;;;;;;4953678;28;20032;-70
2022/06/11 04:15:57;;;;;;;6.47;2.20;;;;;;;;;;4951796;28;20101;-71
2022/06/11 04:18:43;;;;;;;7.88;2.72;;;;;;;;;;4953425;28;20070;-72
2022/06/11 04:21:11;;;;;;;7.90;2.53;;;;;;;;;;4934965;29;20459;-71
2022/06/11 04:23:39;;;;;;;5.72;2.33;;;;;;;;;;4953617;28;20451;-70
2022/06/11 04:26:08;;;;;;;6.43;2.80;;;;;;;;;;4952918;28;20031;-70
2022/06/11 04:28:34;;;;;;;4.30;2.70;;;;;;;;;;4951079;28;20039;-70
2022/06/11 04:31:01;;;;;;;4.32;2.30;;;;;;;;;;4953282;28;20058;-71
2022/06/11 04:33:27;;;;;;;4.82;2.33;;;;;;;;;;4950278;28;20070;-72
2022/06/11 04:35:53;;;;;;;5.30;2.50;;;;;;;;;;4955233;28;20024;-70
2022/06/11 04:38:19;;;;;;;5.00;2.53;;;;;;;;;;4954446;28;20384;-72
2022/06/11 04:40:44;;;;;;;3.70;2.22;;;;;;;;;;4953395;28;20488;-75
2022/06/11 04:43:10;;;;;;;6.85;2.25;;;;;;;;;;4936222;28;20043;-73
2022/06/11 04:45:35;;;;;;;7.18;2.60;;;;;;;;;;4953361;28;20122;-72
2022/06/11 04:48:01;;;;;;;4.45;2.35;;;;;;;;;;4952768;28;20038;-75
2022/06/11 04:50:27;;;;;;;8.45;2.50;;;;;;;;;;4953435;28;20033;-71
2022/06/11 04:52:53;;;;;;;5.35;2.50;;;;;;;;;;4937163;29;20428;-72
2022/06/11 04:55:19;;;;;;;5.68;2.42;;;;;;;;;;4953087;28;20039;-71
2022/06/11 04:57:46;;;;;;;5.75;3.03;;;;;;;;;;4952160;28;20071;-70
2022/06/11 05:00:19;;;;;;;7.47;2.20;;;;;;;;;;4951081;28;20035;-72
2022/06/11 05:02:46;;;;;;;6.53;2.40;;;;;;;;;;4951008;29;20487;-71
2022/06/11 05:05:13;;;;;;;6.60;2.53;;;;;;;;;;4950656;28;20471;-70
2022/06/11 05:07:39;;;;;;;7.25;2.50;;;;;;;;;;4952185;28;20039;-73
2022/06/11 05:10:06;;;;;;;5.47;2.45;;;;;;;;;;4951042;28;20143;-72
2022/06/11 05:12:31;;;;;;;4.82;2.20;;;;;;;;;;4952326;28;20571;-71
2022/06/11 05:14:57;;;;;;;6.75;2.53;;;;;;;;;;4951876;28;20122;-72
2022/06/11 05:17:22;;;;;;;7.50;2.35;;;;;;;;;;4950966;28;20066;-71
2022/06/11 05:19:47;;;;;;;5.30;2.20;;;;;;;;;;4951256;28;20521;-72
2022/06/11 05:22:13;;;;;;;6.68;2.10;;;;;;;;;;4952801;28;20034;-72
2022/06/11 05:24:39;;;;;;;8.02;2.13;;;;;;;;;;4951927;28;20519;-72
2022/06/11 05:27:12;;;;;;;4.95;2.03;;;;;;;;;;4952194;28;20083;-72
2022/06/11 05:29:56;;;;;;;5.05;1.90;;;;;;;;;;4952856;28;20031;-71
2022/06/11 05:32:26;;;;;;;3.72;1.95;;;;;;;;;;4952862;29;20039;-71
2022/06/11 05:34:52;;;;;;;3.40;1.73;;;;;;;;;;4944183;28;20065;-77
2022/06/11 05:37:18;;;;;;;4.93;1.90;;;;;;;;;;4952251;29;20047;-76
2022/06/11 05:39:46;;;;;;;3.60;1.63;;;;;;;;;;4950197;29;20054;-76
2022/06/11 05:42:12;;;;;;;6.90;2.00;;;;;;;;;;4951011;28;20423;-75
2022/06/11 05:44:37;;;;;;;4.50;1.65;;;;;;;;;;4953549;29;20031;-75
2022/06/11 05:47:04;;;;;;;5.70;1.80;;;;;;;;;;4952999;28;20027;-74
2022/06/11 05:49:35;;;;;;;3.78;1.42;;;;;;;;;;4951758;28;20039;-76
2022/06/11 05:52:07;;;;;;;7.10;1.45;;;;;;;;;;4952578;28;20055;-76
2022/06/11 05:54:35;;;;;;;4.28;1.33;;;;;;;;;;4952486;29;20043;-76
2022/06/11 05:57:05;;;;;;;3.13;1.48;;;;;;;;;;4951499;28;20042;-75
2022/06/11 05:59:35;;;;;;;4.45;1.60;;;;;;;;;;4936939;29;20035;-76
2022/06/11 06:02:03;;;;;;;3.75;1.52;;;;;;;;;;4949725;28;20081;-74
2022/06/11 06:04:29;;;;;;;3.17;1.65;;;;;;;;;;4951887;28;20046;-75
2022/06/11 06:06:54;;;;;;;4.18;1.30;;;;;;;;;;4949114;28;20043;-75
2022/06/11 06:09:19;;;;;;;4.13;1.60;;;;;;;;;;4936482;29;20055;-76
2022/06/11 06:11:45;;;;;;;4.57;1.88;;;;;;;;;;4952420;28;20027;-76
2022/06/11 06:14:10;;;;;;;3.78;1.50;;;;;;;;;;4949530;28;20019;-75
2022/06/11 06:16:36;;;;;;;4.90;1.85;;;;;;;;;;4951801;29;20042;-75
2022/06/11 06:19:02;;;;;;;5.22;1.70;;;;;;;;;;4949026;28;20043;-76
2022/06/11 06:21:31;;;;;;;6.57;1.70;;;;;;;;;;4951149;29;20032;-74
2022/06/11 06:23:57;;;;;;;3.90;1.35;;;;;;;;;;4946914;28;20046;-75
2022/06/11 06:26:23;;;;;;;6.93;1.63;;;;;;;;;;4952164;28;20039;-75
2022/06/11 06:28:49;;;;;;;5.07;1.77;;;;;;;;;;4935997;29;20086;-74
2022/06/11 06:31:15;;;;;;;4.40;1.50;;;;;;;;;;4951468;28;20035;-74
2022/06/11 06:33:41;;;;;;;5.03;1.60;;;;;;;;;;4951138;28;20036;-75
2022/06/11 06:36:08;;;;;;;3.53;1.60;;;;;;;;;;4950787;29;20369;-74
2022/06/11 06:38:34;;;;;;;4.38;1.85;;;;;;;;;;4950956;29;20039;-75
2022/06/11 06:41:00;;;;;;;3.42;1.95;;;;;;;;;;4951029;29;20493;-76
2022/06/11 06:43:26;;;;;;;8.20;2.30;;;;;;;;;;4952919;28;20043;-75
2022/06/11 06:45:51;;;;;;;7.95;2.03;;;;;;;;;;4955088;28;20051;-77
2022/06/11 06:48:17;;;;;;;5.55;1.90;;;;;;;;;;4953375;28;20039;-75
2022/06/11 06:50:42;;;;;;;5.85;1.92;;;;;;;;;;4952742;28;20107;-75
2022/06/11 06:53:08;;;;;;;7.43;1.63;;;;;;;;;;4937774;29;20513;-74
2022/06/11 06:55:33;;;;;;;5.40;2.05;;;;;;;;;;4954774;28;20035;-76
2022/06/11 06:57:59;;;;;;;3.80;1.70;;;;;;;;;;4954588;28;20087;-75
2022/06/11 07:00:25;;;;;;;4.82;1.80;;;;;;;;;;4937307;29;20090;-76
2022/06/11 07:02:53;;;;;;;3.65;1.50;;;;;;;;;;4933839;29;20031;-76
2022/06/11 07:05:20;;;;;;;3.67;1.45;;;;;;;;;;4935202;29;20507;-75
2022/06/11 07:07:48;;;;;;;7.72;1.75;;;;;;;;;;4953854;28;20086;-75
2022/06/11 07:10:14;;;;;;;5.22;2.15;;;;;;;;;;4952274;28;20043;-74
2022/06/11 07:12:40;;;;;;;10.43;2.38;;;;;;;;;;4953137;28;20089;-74
2022/06/11 07:15:06;;;;;;;4.50;1.67;;;;;;;;;;4954167;28;20082;-75
2022/06/11 07:17:38;;;;;;;4.03;1.73;;;;;;;;;;4953438;28;20027;-75
2022/06/11 07:20:12;;;;;;;3.40;1.80;;;;;;;;;;4952159;28;20071;-75
2022/06/11 07:22:42;;;;;;;4.32;1.30;;;;;;;;;;4930948;29;20125;-74
2022/06/11 07:25:09;;;;;;;3.45;1.33;;;;;;;;;;4951444;28;20032;-74
2022/06/11 07:27:39;;;;;;;2.95;1.58;;;;;;;;;;4952165;28;20042;-75
2022/06/11 07:30:10;;;;;;;6.57;1.70;;;;;;;;;;4952539;28;20042;-76
2022/06/11 07:32:36;;;;;;;4.78;1.50;;;;;;;;;;4938765;29;20031;-76
2022/06/11 07:35:04;;;;;;;3.53;1.10;;;;;;;;;;4957452;28;20422;-75
2022/06/11 07:37:29;;;;;;;3.83;1.50;;;;;;;;;;4956665;28;20062;-75
2022/06/11 07:39:55;;;;;;;5.57;1.70;;;;;;;;;;4957854;29;20043;-77
2022/06/11 07:42:20;;;;;;;6.78;2.00;;;;;;;;;;4952015;28;20041;-76
2022/06/11 07:44:46;;;;;;;4.97;1.83;;;;;;;;;;4956058;28;20039;-74
2022/06/11 07:47:11;;;;;;;4.20;2.05;;;;;;;;;;4955754;28;20497;-76
2022/06/11 07:49:37;;;;;;;4.22;1.92;;;;;;;;;;4954826;28;20067;-75
2022/06/11 07:52:03;;;;;;;3.67;1.65;;;;;;;;;;4955566;28;20054;-75
2022/06/11 07:54:29;;;;;;;5.78;1.70;;;;;;;;;;4955117;28;20538;-74
2022/06/11 07:56:54;;;;;;;5.68;1.70;;;;;;;;;;4956140;28;20055;-75
2022/06/11 07:59:20;;;;;;;7.50;2.00;;;;;;;;;;4952411;28;20094;-76
2022/06/11 08:01:45;;;;;;;5.03;1.38;;;;;;;;;;4952121;28;20035;-76
2022/06/11 08:04:12;;;;;;;4.90;1.38;;;;;;;;;;4953426;28;20043;-75
2022/06/11 08:06:37;;;;;;;3.40;1.25;;;;;;;;;;4953890;28;20043;-75
2022/06/11 08:09:03;;;;;;;6.00;1.60;;;;;;;;;;4938065;29;20035;-74
2022/06/11 08:11:28;;;;;;;4.68;1.52;;;;;;;;;;4952322;29;20566;-75
2022/06/11 08:13:53;;;;;;;3.10;1.50;;;;;;;;;;4938959;29;20329;-76
2022/06/11 08:16:19;;;;;;;6.15;1.40;;;;;;;;;;4954623;28;20193;-75
2022/06/11 08:18:44;;;;;;;3.30;1.60;;;;;;;;;;4955677;28;20424;-75
2022/06/11 08:21:10;;;;;;;3.25;1.50;;;;;;;;;;4956733;28;20045;-75
2022/06/11 08:23:36;;;;;;;4.47;2.38;;;;;;;;;;4959914;28;20479;-74
2022/06/11 08:26:02;;;;;;;3.70;1.65;;;;;;;;;;4958492;28;20027;-75
2022/06/11 08:28:29;;;;;;;2.47;1.17;;;;;;;;;;4957044;28;20043;-76
2022/06/11 08:30:54;;;;;;;3.92;1.40;;;;;;;;;;4956026;28;20439;-76
2022/06/11 08:33:20;;;;;;;4.25;1.35;;;;;;;;;;4958538;28;20031;-76
2022/06/11 08:35:47;;;;;;;3.13;1.30;;;;;;;;;;4956802;29;20028;-75
2022/06/11 08:38:14;;;;;;;3.17;1.20;;;;;;;;;;4956357;29;20467;-75
2022/06/11 08:40:50;;;;;;;3.20;1.10;;;;;;;;;;4955256;28;20039;-75
2022/06/11 08:43:25;;;;;;;3.25;1.00;;;;;;;;;;4958457;28;20069;-75
2022/06/11 08:45:56;;;;;;;3.38;1.00;;;;;;;;;;4942358;29;20050;-75
2022/06/11 08:48:38;;;;;;;2.67;0.80;;;;;;;;;;4956215;29;20043;-75
2022/06/11 08:51:19;;;;;;;1.67;0.50;;;;;;;;;;4951381;29;20114;-75
2022/06/11 08:53:46;;;;;;;2.63;0.85;;;;;;;;;;4957920;28;20094;-76
2022/06/11 08:56:28;;;;;;;3.13;0.70;;;;;;;;;;4955964;29;20030;-76
2022/06/11 08:59:11;;;;;;;4.20;0.90;;;;;;;;;;4956282;28;20039;-76
2022/06/11 09:01:53;;;;;;;3.08;0.90;;;;;;;;;;4955315;28;20070;-76
2022/06/11 09:04:28;;;;;;;2.20;1.10;;;;;;;;;;4951578;28;20043;-75
2022/06/11 09:07:08;;;;;;;1.88;0.98;;;;;;;;;;4940722;29;20476;-75
2022/06/11 09:09:44;;;;;;;3.13;0.95;;;;;;;;;;4952353;28;20039;-74
2022/06/11 09:12:22;;;;;;;2.53;0.90;;;;;;;;;;4956033;28;20071;-75
2022/06/11 09:15:21;;;;;;;2.20;0.80;;;;;;;;;;4956545;28;20034;-76
2022/06/11 09:18:09;;;;;;;2.28;0.80;;;;;;;;;;4953636;29;20035;-76
2022/06/11 09:20:56;;;;;;;2.28;1.00;;;;;;;;;;4952558;28;20054;-75
2022/06/11 09:23:53;;;;;;;2.55;0.80;;;;;;;;;;4940762;29;20094;-76
2022/06/11 09:26:59;;;;;;;2.38;0.90;;;;;;;;;;4954272;29;20055;-76
2022/06/11 09:29:33;;;;;;;1.52;1.10;;;;;;;;;;4882429;29;20121;-75
2022/06/11 09:32:29;;;;;;;4.72;1.33;;;;;;;;;;4943486;28;20306;-75
2022/06/11 09:35:08;;;;;;;2.38;1.08;;;;;;;;;;4953684;29;20027;-76
2022/06/11 09:37:47;;;;;;;5.05;1.20;;;;;;;;;;4951537;28;20160;-75
2022/06/11 09:40:38;;;;;;;2.00;0.82;;;;;;;;;;4955104;28;20101;-75
2022/06/11 09:43:41;;;;;;;2.55;0.82;;;;;;;;;;4952532;28;20043;-75
2022/06/11 09:46:43;;;;;;;1.60;0.80;;;;;;;;;;4951767;29;20054;-74
2022/06/11 09:49:16;;;;;;;5.28;1.02;;;;;;;;;;4940086;28;20499;-74
2022/06/11 09:51:52;;;;;;;;;;;;;;;;;;4946860;28;20053;-73
2022/06/11 09:54:33;;;;;;;3.40;0.90;;;;;;;;;;4949822;28;20070;-74
2022/06/11 09:57:04;;;;;;;3.00;0.82;;;;;;;;;;4951713;28;20136;-75
2022/06/11 09:59:43;;;;;;;1.38;0.60;;;;;;;;;;4956381;28;20054;-75
2022/06/11 10:02:29;;;;;;;2.03;0.95;;;;;;;;;;4956966;28;20027;-75
2022/06/11 10:04:56;;;;;;;2.65;1.02;;;;;;;;;;4954507;28;20035;-75
2022/06/11 10:07:32;;;;;;;2.42;0.90;;;;;;;;;;4954092;28;20050;-75
2022/06/11 10:10:20;;;;;;;4.10;1.08;;;;;;;;;;4938527;29;20138;-75
2022/06/11 10:12:53;;;;;;;3.40;0.90;;;;;;;;;;4952000;29;20042;-75
2022/06/11 10:15:33;;;;;;;2.53;0.73;;;;;;;;;;4952543;28;20380;-76
2022/06/11 10:18:11;;;;;;;2.40;0.90;;;;;;;;;;4949699;28;20035;-75
2022/06/11 10:20:46;;;;;;;2.95;1.10;;;;;;;;;;4955091;28;20139;-76
2022/06/11 10:23:33;;;;;;;2.15;0.63;;;;;;;;;;4948162;28;20046;-75
2022/06/11 10:26:22;;;;;;;5.15;0.90;;;;;;;;;;4949423;28;20062;-74
2022/06/11 10:29:14;;;;;;;4.22;1.02;;;;;;;;;;4933807;28;20419;-74
2022/06/11 10:31:53;;;;;;;1.90;0.83;;;;;;;;;;4931959;29;20047;-74
2022/06/11 10:34:24;;;;;;;2.45;0.90;;;;;;;;;;4952412;28;20491;-74
2022/06/11 10:37:07;;;;;;;2.28;0.88;;;;;;;;;;4920010;29;20042;-73
2022/06/11 10:39:38;;;;;;;2.13;0.70;;;;;;;;;;4950107;28;20433;-75
2022/06/11 10:42:15;;;;;;;2.45;0.80;;;;;;;;;;4951640;28;20035;-76
2022/06/11 10:44:46;;;;;;;1.55;0.93;;;;;;;;;;4948328;28;20046;-74
2022/06/11 10:47:16;;;;;;;3.63;1.00;;;;;;;;;;4950713;28;20043;-76
2022/06/11 10:49:44;;;;;;;3.15;1.15;;;;;;;;;;4949924;28;20126;-75
2022/06/11 10:53:03;;;;;;;3.17;0.70;;;;;;;;;;4948917;28;20039;-75
2022/06/11 10:55:39;;;;;;;1.75;0.85;;;;;;;;;;4875963;29;20148;-74
2022/06/11 10:58:11;;;;;;;3.83;0.70;;;;;;;;;;4936943;28;20074;-75
2022/06/11 11:00:47;;;;;;;2.08;0.80;;;;;;;;;;4945423;28;20042;-75
2022/06/11 11:03:40;;;;;;;1.75;0.80;;;;;;;;;;4932752;29;20407;-76
2022/06/11 11:06:06;;;;;;;;;;;;;;;;;;4952387;28;20042;-73
2022/06/11 11:08:36;;;;;;;2.45;0.68;;;;;;;;;;4953286;28;20446;-76
2022/06/11 11:11:08;;;;;;;4.18;0.82;;;;;;;;;;4952954;28;20035;-76
2022/06/11 11:13:42;;;;;;;1.25;0.77;;;;;;;;;;4952187;28;20471;-76
2022/06/11 11:16:08;;;;;;;1.95;0.82;;;;;;;;;;4952150;28;20039;-73
2022/06/11 11:18:41;;;;;;;3.05;0.90;;;;;;;;;;4937570;29;20043;-76
2022/06/11 11:21:21;;;;;;;2.65;1.02;;;;;;;;;;4952914;28;20070;-75
2022/06/11 11:23:50;;;;;;;2.25;0.80;;;;;;;;;;4936506;29;20043;-77
2022/06/11 11:26:59;;;;;;;1.45;0.65;;;;;;;;;;4936244;29;20045;-76
2022/06/11 11:29:32;;;;;;;2.15;0.70;;;;;;;;;;4936856;28;20035;-75
2022/06/11 11:32:06;;;;;;;2.53;0.90;;;;;;;;;;4952902;28;20034;-73
2022/06/11 11:34:43;;;;;;;2.75;0.90;;;;;;;;;;4952940;28;20372;-76
2022/06/11 11:37:11;;;;;;;3.78;0.90;;;;;;;;;;4949261;28;20550;-74
2022/06/11 11:39:37;;;;;;;3.67;0.98;;;;;;;;;;4951629;28;20361;-73
2022/06/11 11:42:12;;;;;;;1.27;0.90;;;;;;;;;;4951976;28;20094;-75
2022/06/11 11:44:41;;;;;;;2.92;0.98;;;;;;;;;;4951241;28;20629;-73
2022/06/11 11:47:16;;;;;;;2.47;0.90;;;;;;;;;;4952066;28;20031;-74
2022/06/11 11:49:50;;;;;;;2.60;1.02;;;;;;;;;;4952409;28;20483;-74
2022/06/11 11:52:19;;;;;;;2.70;0.70;;;;;;;;;;4951817;29;20130;-74
2022/06/11 11:55:10;;;;;;;1.85;0.82;;;;;;;;;;4949430;28;20043;-73
2022/06/11 11:57:37;;;;;;;3.75;0.88;;;;;;;;;;4948084;28;20043;-74
2022/06/11 12:00:27;;;;;;;4.13;1.00;;;;;;;;;;4951457;28;20084;-75
2022/06/11 12:02:56;;;;;;;2.40;0.73;;;;;;;;;;4949003;28;20126;-76
2022/06/11 12:05:30;;;;;;;4.45;0.73;;;;;;;;;;4951182;29;20482;-76
2022/06/11 12:07:58;;;;;;;1.52;0.80;;;;;;;;;;4951423;29;20027;-76
2022/06/11 12:10:46;;;;;;;2.20;1.40;;;;;;;;;;4935386;29;20042;-73
2022/06/11 12:13:49;;;;;;;1.10;0.80;;;;;;;;;;4951188;28;20708;-74
2022/06/11 12:16:25;;;;;;;2.83;0.90;;;;;;;;;;4947144;28;20039;-74
2022/06/11 12:18:55;;;;;;;2.13;0.77;;;;;;;;;;4933666;29;20406;-75
2022/06/11 12:21:28;;;;;;;2.72;0.98;;;;;;;;;;4950583;28;20071;-75
2022/06/11 12:24:06;;;;;;;4.85;1.05;;;;;;;;;;4951525;28;20032;-75
2022/06/11 12:26:38;;;;;;;3.60;0.85;;;;;;;;;;4952126;28;20047;-75
2022/06/11 12:29:18;;;;;;;0.98;0.68;;;;;;;;;;4949588;28;20486;-77
2022/06/11 12:31:43;;;;;;;1.65;0.80;;;;;;;;;;4949107;28;20510;-76
2022/06/11 12:34:14;;;;;;;4.00;1.00;;;;;;;;;;4928014;28;20043;-75
2022/06/11 12:36:42;;;;;;;2.42;1.10;;;;;;;;;;4953579;28;20035;-76
2022/06/11 12:39:16;;;;;;;3.00;0.95;;;;;;;;;;4952068;28;20039;-76
2022/06/11 12:42:20;;;;;;;1.65;0.90;;;;;;;;;;4947387;28;20054;-74
2022/06/11 12:44:46;;;;;;;2.60;0.90;;;;;;;;;;4948920;28;20062;-74
2022/06/11 12:47:27;;;;;;;4.15;0.98;;;;;;;;;;4950572;28;20078;-74
2022/06/11 12:50:04;;;;;;;1.20;0.80;;;;;;;;;;4951299;28;20031;-76
2022/06/11 12:52:44;;;;;;;1.23;0.80;;;;;;;;;;4950973;28;20038;-76
2022/06/11 12:55:12;;;;;;;2.85;0.85;;;;;;;;;;4951272;28;20560;-75
2022/06/11 12:58:01;;;;;;;2.17;0.80;;;;;;;;;;4951547;28;20496;-76
2022/06/11 13:00:48;;;;;;;2.83;0.80;;;;;;;;;;4948787;28;20036;-75
2022/06/11 13:03:51;;;;;;;2.13;0.80;;;;;;;;;;4951128;28;20063;-75
2022/06/11 13:06:50;;;;;;;1.73;0.77;;;;;;;;;;4933162;29;20085;-74
2022/06/11 13:09:30;;;;;;;3.60;1.15;;;;;;;;;;4950394;28;20046;-74
2022/06/11 13:12:14;;;;;;;3.80;1.00;;;;;;;;;;4949638;28;20035;-75
2022/06/11 13:15:01;;;;;;;3.03;0.98;;;;;;;;;;4949724;28;20043;-74
2022/06/11 13:18:04;;;;;;;2.00;0.88;;;;;;;;;;4947454;28;20547;-77
2022/06/11 13:20:35;;;;;;;2.20;1.00;;;;;;;;;;4949697;28;20047;-76
2022/06/11 13:23:12;;;;;;;3.95;0.77;;;;;;;;;;4951679;28;20459;-75
2022/06/11 13:25:53;;;;;;;2.05;0.75;;;;;;;;;;4949344;28;20078;-75
2022/06/11 13:28:36;;;;;;;2.53;0.80;;;;;;;;;;4948389;28;20055;-75
2022/06/11 13:31:34;;;;;;;2.00;0.80;;;;;;;;;;4948072;28;20494;-75
2022/06/11 13:34:24;;;;;;;3.38;0.70;;;;;;;;;;4949451;29;20518;-76
2022/06/11 13:37:13;;;;;;;7.40;0.98;;;;;;;;;;4933675;29;20040;-75
2022/06/11 13:39:41;;;;;;;3.17;1.00;;;;;;;;;;4951592;28;20059;-75
2022/06/11 13:42:35;;;;;;;1.77;0.90;;;;;;;;;;4950667;28;20508;-78
2022/06/11 13:45:04;;;;;;;1.75;1.00;;;;;;;;;;4950676;28;20039;-77
2022/06/11 13:47:46;;;;;;;1.30;0.80;;;;;;;;;;4949740;28;20672;-76
2022/06/11 13:50:38;;;;;;;1.30;0.70;;;;;;;;;;4949329;28;20043;-75
2022/06/11 13:56:12;;;;;;;1.27;0.80;;;;;;;;;;4950219;28;20155;-77
2022/06/11 13:59:15;;;;;;;2.33;0.80;;;;;;;;;;4951661;28;20051;-78
2022/06/11 14:01:46;;;;;;;3.05;0.90;;;;;;;;;;4948474;29;20035;-79
2022/06/11 14:04:34;;;;;;;3.20;1.08;;;;;;;;;;4950362;28;20071;-76
2022/06/11 14:07:04;;;;;;;1.45;1.10;;;;;;;;;;4949325;28;20137;-76
2022/06/11 14:12:45;;;;;;;5.55;0.98;;;;;;;;;;4950740;28;20037;-77
2022/06/11 14:15:13;;;;;;;1.83;0.90;;;;;;;;;;4951474;28;20075;-78
2022/06/11 14:17:43;;;;;;;1.70;0.90;;;;;;;;;;4949628;28;20039;-77
2022/06/11 14:20:28;;;;;;;3.20;0.95;;;;;;;;;;4947323;28;22054;-75
2022/06/11 14:23:00;;;;;;;3.10;1.02;;;;;;;;;;4937045;28;20109;-77
2022/06/11 14:25:47;;;;;;;0.80;0.80;;;;;;;;;;4950113;29;20046;-74
2022/06/11 14:28:19;;;;;;;0.93;0.70;;;;;;;;;;4950774;28;20051;-77
2022/06/11 14:30:48;;;;;;;2.15;1.17;;;;;;;;;;4951526;29;20567;-76
2022/06/11 14:33:13;;;;;;;1.95;0.90;;;;;;;;;;4951994;28;20081;-78
2022/06/11 14:35:48;;;;;;;2.93;0.90;;;;;;;;;;4952736;28;20051;-78
2022/06/11 14:38:44;;;;;;;3.00;1.08;;;;;;;;;;4952654;28;20275;-77
2022/06/11 14:41:21;;;;;;;2.38;1.00;;;;;;;;;;4957196;28;20495;-77
2022/06/11 14:46:36;;;;;;;3.03;1.35;;;;;;;;;;4952663;28;20059;-77
2022/06/11 14:49:36;;;;;;;2.85;1.55;;;;;;;;;;4937427;29;20716;-78
2022/06/11 14:52:04;;;;;;;2.47;1.20;;;;;;;;;;4955047;28;20070;-75
2022/06/11 14:54:30;;;;;;;6.18;1.42;;;;;;;;;;4954496;28;20122;-76
2022/06/11 14:57:32;;;;;;;1.58;1.23;;;;;;;;;;4954532;28;20170;-75
2022/06/11 15:00:30;;;;;;;1.95;1.25;;;;;;;;;;4952242;28;20050;-74
2022/06/11 15:03:17;;;;;;;1.85;1.20;;;;;;;;;;4950605;28;20086;-74
2022/06/11 15:06:03;;;;;;;1.45;1.17;;;;;;;;;;4955380;28;20621;-75
2022/06/11 15:08:48;;;;;;;3.20;1.50;;;;;;;;;;4951756;28;20035;-75
2022/06/11 15:11:35;;;;;;;1.55;1.27;;;;;;;;;;4950515;29;20036;-75
2022/06/11 15:14:19;;;;;;;3.60;0.90;;;;;;;;;;4950228;28;20034;-76
2022/06/11 15:16:45;;;;;;;3.63;1.10;;;;;;;;;;4958144;28;20413;-76
2022/06/11 15:19:20;;;;;;;2.67;1.40;;;;;;;;;;4956567;28;20046;-77
2022/06/11 15:22:06;;;;;;;2.33;1.38;;;;;;;;;;4959410;28;20054;-76
2022/06/11 15:24:54;;;;;;;2.72;1.35;;;;;;;;;;4956869;28;20057;-78
2022/06/11 15:27:23;;;;;;;3.35;1.33;;;;;;;;;;4953500;28;20050;-78
2022/06/11 15:29:49;;;;;;;1.70;1.27;;;;;;;;;;4951925;28;20047;-76
2022/06/11 15:32:22;;;;;;;1.65;1.27;;;;;;;;;;4951210;28;20405;-78